sensor_id;sensor_type;location;lat;lon;timestamp;pressure;altitude;pressure_sealevel;temperature;humidity
75996;BME280;64681;49.738;9.004;2024-01-16T00:02:01;98763.94;;;-0.68;76.95
75996;BME280;64681;49.738;9.004;2024-01-16T00:04:26;98786.03;;;-0.84;78.21
75996;BME280;64681;49.738;9.004;2024-01-16T00:06:55;98801.19;;;-0.71;78.29
75996;BME280;64681;49.738;9.004;2024-01-16T00:09:20;98808.28;;;-0.76;77.95
75996;BME280;64681;49.738;9.004;2024-01-16T00:11:46;98800.41;;;-0.76;77.77
75996;BME280;64681;49.738;9.004;2024-01-16T00:14:12;98816.66;;;-0.69;77.51
75996;BME280;64681;49.738;9.004;2024-01-16T00:16:46;98809.38;;;-0.88;78.19
75996;BME280;64681;49.738;9.004;2024-01-16T00:19:13;98807.25;;;-0.81;77.87
75996;BME280;64681;49.738;9.004;2024-01-16T00:21:44;98816.50;;;-0.99;78.97
75996;BME280;64681;49.738;9.004;2024-01-16T00:24:13;98813.91;;;-1.14;79.37
75996;BME280;64681;49.738;9.004;2024-01-16T00:26:39;98831.16;;;-0.98;78.38
75996;BME280;64681;49.738;9.004;2024-01-16T00:29:05;98818.88;;;-1.07;79.93
75996;BME280;64681;49.738;9.004;2024-01-16T00:31:31;98826.16;;;-0.94;78.87
75996;BME280;64681;49.738;9.004;2024-01-16T00:33:56;98828.03;;;-1.15;79.45
75996;BME280;64681;49.738;9.004;2024-01-16T00:36:22;98838.50;;;-1.10;79.07
75996;BME280;64681;49.738;9.004;2024-01-16T00:38:48;98833.06;;;-1.39;80.81
75996;BME280;64681;49.738;9.004;2024-01-16T00:41:13;98848.22;;;-1.52;81.86
75996;BME280;64681;49.738;9.004;2024-01-16T00:43:43;98839.84;;;-1.44;81.81
75996;BME280;64681;49.738;9.004;2024-01-16T00:46:09;98844.28;;;-1.23;80.56
75996;BME280;64681;49.738;9.004;2024-01-16T00:48:35;98838.03;;;-1.28;80.31
75996;BME280;64681;49.738;9.004;2024-01-16T00:51:00;98849.56;;;-1.29;81.20
75996;BME280;64681;49.738;9.004;2024-01-16T00:53:26;98837.00;;;-1.52;81.70
75996;BME280;64681;49.738;9.004;2024-01-16T00:55:52;98852.44;;;-1.35;81.30
75996;BME280;64681;49.738;9.004;2024-01-16T00:58:21;98858.94;;;-1.17;80.22
75996;BME280;64681;49.738;9.004;2024-01-16T01:00:47;98860.53;;;-1.32;81.55
75996;BME280;64681;49.738;9.004;2024-01-16T01:03:12;98850.34;;;-1.44;81.81
75996;BME280;64681;49.738;9.004;2024-01-16T01:05:38;98853.19;;;-1.14;81.28
75996;BME280;64681;49.738;9.004;2024-01-16T01:08:04;98837.75;;;-1.26;81.13
75996;BME280;64681;49.738;9.004;2024-01-16T01:10:30;98875.16;;;-0.89;80.56
75996;BME280;64681;49.738;9.004;2024-01-16T01:12:55;98879.09;;;-0.92;80.24
75996;BME280;64681;49.738;9.004;2024-01-16T01:15:21;98864.19;;;-0.97;80.06
75996;BME280;64681;49.738;9.004;2024-01-16T01:17:49;98865.50;;;-1.04;80.95
75996;BME280;64681;49.738;9.004;2024-01-16T01:20:15;98878.28;;;-0.77;79.60
75996;BME280;64681;49.738;9.004;2024-01-16T01:22:40;98875.41;;;-0.91;80.15
75996;BME280;64681;49.738;9.004;2024-01-16T01:25:07;98861.22;;;-0.69;79.08
75996;BME280;64681;49.738;9.004;2024-01-16T01:27:32;98876.97;;;-0.80;79.37
75996;BME280;64681;49.738;9.004;2024-01-16T01:29:58;98877.22;;;-0.66;78.16
75996;BME280;64681;49.738;9.004;2024-01-16T01:32:23;98873.06;;;-0.82;78.83
75996;BME280;64681;49.738;9.004;2024-01-16T01:34:49;98889.84;;;-0.93;79.82
75996;BME280;64681;49.738;9.004;2024-01-16T01:37:15;98876.75;;;-0.99;79.55
75996;BME280;64681;49.738;9.004;2024-01-16T01:39:40;98889.84;;;-0.93;80.07
75996;BME280;64681;49.738;9.004;2024-01-16T01:42:06;98891.19;;;-1.17;80.61
75996;BME280;64681;49.738;9.004;2024-01-16T01:44:31;98886.72;;;-1.11;80.34
75996;BME280;64681;49.738;9.004;2024-01-16T01:46:58;98888.28;;;-1.10;80.47
75996;BME280;64681;49.738;9.004;2024-01-16T01:49:25;98889.06;;;-1.15;81.03
75996;BME280;64681;49.738;9.004;2024-01-16T01:51:52;98896.91;;;-0.78;79.84
75996;BME280;64681;49.738;9.004;2024-01-16T01:54:19;98892.47;;;-1.09;80.33
75996;BME280;64681;49.738;9.004;2024-01-16T01:56:47;98899.03;;;-1.01;80.66
75996;BME280;64681;49.738;9.004;2024-01-16T01:59:17;98909.47;;;-0.75;79.73
75996;BME280;64681;49.738;9.004;2024-01-16T02:01:45;98912.31;;;-0.61;78.91
75996;BME280;64681;49.738;9.004;2024-01-16T02:04:17;98914.41;;;-0.53;78.56
75996;BME280;64681;49.738;9.004;2024-01-16T02:06:44;98900.56;;;-0.80;79.17
75996;BME280;64681;49.738;9.004;2024-01-16T02:09:13;98923.53;;;-0.45;78.30
75996;BME280;64681;49.738;9.004;2024-01-16T02:11:42;98920.63;;;-0.34;77.71
75996;BME280;64681;49.738;9.004;2024-01-16T02:14:09;98916.00;;;-0.68;78.88
75996;BME280;64681;49.738;9.004;2024-01-16T02:16:39;98918.13;;;-0.75;79.51
75996;BME280;64681;49.738;9.004;2024-01-16T02:19:05;98919.19;;;-0.86;79.48
75996;BME280;64681;49.738;9.004;2024-01-16T02:21:39;98917.06;;;-0.74;79.46
75996;BME280;64681;49.738;9.004;2024-01-16T02:24:08;98922.84;;;-0.77;79.36
75996;BME280;64681;49.738;9.004;2024-01-16T02:26:35;98918.41;;;-0.92;79.90
75996;BME280;64681;49.738;9.004;2024-01-16T02:29:02;98929.63;;;-0.71;79.55
75996;BME280;64681;49.738;9.004;2024-01-16T02:31:28;98919.88;;;-0.44;78.35
75996;BME280;64681;49.738;9.004;2024-01-16T02:33:54;98909.97;;;-0.63;79.04
75996;BME280;64681;49.738;9.004;2024-01-16T02:36:19;98910.78;;;-0.68;79.23
75996;BME280;64681;49.738;9.004;2024-01-16T02:38:45;98912.06;;;-0.55;79.78
75996;BME280;64681;49.738;9.004;2024-01-16T02:41:13;98905.47;;;-0.52;78.10
75996;BME280;64681;49.738;9.004;2024-01-16T02:43:39;98917.56;;;-0.72;78.72
75996;BME280;64681;49.738;9.004;2024-01-16T02:46:04;98896.31;;;-0.60;78.58
75996;BME280;64681;49.738;9.004;2024-01-16T02:48:30;98917.03;;;-0.53;77.98
75996;BME280;64681;49.738;9.004;2024-01-16T02:50:55;98922.84;;;-0.77;79.03
75996;BME280;64681;49.738;9.004;2024-01-16T02:53:21;98919.44;;;-0.98;80.07
75996;BME280;64681;49.738;9.004;2024-01-16T02:55:46;98904.81;;;-1.09;80.10
75996;BME280;64681;49.738;9.004;2024-01-16T02:58:12;98905.06;;;-1.16;80.63
75996;BME280;64681;49.738;9.004;2024-01-16T03:00:38;98917.38;;;-1.17;80.82
75996;BME280;64681;49.738;9.004;2024-01-16T03:03:03;98926.28;;;-1.18;81.17
75996;BME280;64681;49.738;9.004;2024-01-16T03:05:29;98913.19;;;-1.33;81.76
75996;BME280;64681;49.738;9.004;2024-01-16T03:07:55;98917.38;;;-1.32;81.88
75996;BME280;64681;49.738;9.004;2024-01-16T03:10:21;98913.97;;;-1.38;81.89
75996;BME280;64681;49.738;9.004;2024-01-16T03:12:46;98933.38;;;-1.29;81.54
75996;BME280;64681;49.738;9.004;2024-01-16T03:15:12;98905.59;;;-1.24;80.96
75996;BME280;64681;49.738;9.004;2024-01-16T03:17:38;98926.53;;;-0.93;79.51
75996;BME280;64681;49.738;9.004;2024-01-16T03:20:03;98924.19;;;-0.95;80.21
75996;BME280;64681;49.738;9.004;2024-01-16T03:22:29;98936.22;;;-0.78;79.41
75996;BME280;64681;49.738;9.004;2024-01-16T03:24:55;98911.31;;;-0.86;79.82
75996;BME280;64681;49.738;9.004;2024-01-16T03:27:20;98922.84;;;-0.87;79.78
75996;BME280;64681;49.738;9.004;2024-01-16T03:29:46;98924.19;;;-0.85;79.31
75996;BME280;64681;49.738;9.004;2024-01-16T03:32:11;98917.88;;;-0.89;79.51
75996;BME280;64681;49.738;9.004;2024-01-16T03:34:37;98922.63;;;-1.32;81.08
75996;BME280;64681;49.738;9.004;2024-01-16T03:37:02;98922.34;;;-1.31;81.31
75996;BME280;64681;49.738;9.004;2024-01-16T03:39:28;98939.63;;;-1.24;80.51
75996;BME280;64681;49.738;9.004;2024-01-16T03:41:54;98922.63;;;-1.32;81.00
75996;BME280;64681;49.738;9.004;2024-01-16T03:44:19;98926.28;;;-1.28;81.17
75996;BME280;64681;49.738;9.004;2024-01-16T03:46:45;98901.63;;;-1.68;82.33
75996;BME280;64681;49.738;9.004;2024-01-16T03:49:10;98910.28;;;-1.63;82.07
75996;BME280;64681;49.738;9.004;2024-01-16T03:51:36;98927.84;;;-1.48;82.06
75996;BME280;64681;49.738;9.004;2024-01-16T03:54:01;98921.81;;;-1.58;82.63
75996;BME280;64681;49.738;9.004;2024-01-16T03:56:27;98909.78;;;-1.34;81.51
75996;BME280;64681;49.738;9.004;2024-01-16T03:58:53;98923.94;;;-1.19;81.61
75996;BME280;64681;49.738;9.004;2024-01-16T04:01:18;98911.63;;;-1.24;82.02
75996;BME280;64681;49.738;9.004;2024-01-16T04:03:44;98912.91;;;-0.96;81.38
75996;BME280;64681;49.738;9.004;2024-01-16T04:06:16;98918.94;;;-1.05;81.03
75996;BME280;64681;49.738;9.004;2024-01-16T04:08:42;98906.91;;;-1.27;82.06
75996;BME280;64681;49.738;9.004;2024-01-16T04:11:14;98911.63;;;-1.24;81.41
75996;BME280;64681;49.738;9.004;2024-01-16T04:13:41;98917.38;;;-1.01;81.16
75996;BME280;64681;49.738;9.004;2024-01-16T04:16:06;98922.59;;;-1.06;81.65
75996;BME280;64681;49.738;9.004;2024-01-16T04:18:36;98924.44;;;-1.02;81.41
75996;BME280;64681;49.738;9.004;2024-01-16T04:21:04;98927.56;;;-0.84;80.47
75996;BME280;64681;49.738;9.004;2024-01-16T04:23:30;98927.06;;;-1.07;81.12
75996;BME280;64681;49.738;9.004;2024-01-16T04:25:56;98939.13;;;-1.06;80.92
75996;BME280;64681;49.738;9.004;2024-01-16T04:28:21;98921.31;;;-1.14;80.91
75996;BME280;64681;49.738;9.004;2024-01-16T04:30:47;98941.97;;;-0.82;80.55
75996;BME280;64681;49.738;9.004;2024-01-16T04:33:12;98940.69;;;-1.00;80.47
75996;BME280;64681;49.738;9.004;2024-01-16T04:35:38;98923.66;;;-0.97;80.51
75996;BME280;64681;49.738;9.004;2024-01-16T04:38:03;98917.09;;;-0.84;79.27
75996;BME280;64681;49.738;9.004;2024-01-16T04:40:29;98935.72;;;-0.86;79.81
75996;BME280;64681;49.738;9.004;2024-01-16T04:42:54;98921.03;;;-0.87;79.55
75996;BME280;64681;49.738;9.004;2024-01-16T04:45:20;98921.00;;;-0.92;79.45
75996;BME280;64681;49.738;9.004;2024-01-16T04:47:45;98925.75;;;-0.89;80.04
75996;BME280;64681;49.738;9.004;2024-01-16T04:50:11;98931.00;;;-1.09;80.47
75996;BME280;64681;49.738;9.004;2024-01-16T04:52:37;98910.28;;;-1.01;80.06
75996;BME280;64681;49.738;9.004;2024-01-16T04:55:03;98916.06;;;-0.99;80.54
75996;BME280;64681;49.738;9.004;2024-01-16T04:57:28;98916.31;;;-1.10;80.43
75996;BME280;64681;49.738;9.004;2024-01-16T04:59:54;98913.72;;;-1.16;80.65
75996;BME280;64681;49.738;9.004;2024-01-16T05:02:19;98913.97;;;-1.33;81.55
75996;BME280;64681;49.738;9.004;2024-01-16T05:04:45;98913.19;;;-1.07;80.19
75996;BME280;64681;49.738;9.004;2024-01-16T05:07:15;98924.19;;;-1.36;81.35
75996;BME280;64681;49.738;9.004;2024-01-16T05:09:40;98909.78;;;-1.08;79.86
75996;BME280;64681;49.738;9.004;2024-01-16T05:12:06;98912.13;;;-0.86;79.23
75996;BME280;64681;49.738;9.004;2024-01-16T05:14:31;98918.19;;;-1.26;80.16
75996;BME280;64681;49.738;9.004;2024-01-16T05:16:57;98921.03;;;-1.13;80.20
75996;BME280;64681;49.738;9.004;2024-01-16T05:19:22;98906.63;;;-1.25;80.78
75996;BME280;64681;49.738;9.004;2024-01-16T05:21:48;98917.91;;;-1.35;81.16
75996;BME280;64681;49.738;9.004;2024-01-16T05:24:14;98910.56;;;-1.28;80.46
75996;BME280;64681;49.738;9.004;2024-01-16T05:26:39;98890.94;;;-1.36;80.62
75996;BME280;64681;49.738;9.004;2024-01-16T05:29:05;98908.22;;;-1.24;80.72
75996;BME280;64681;49.738;9.004;2024-01-16T05:31:30;98896.44;;;-1.32;80.46
75996;BME280;64681;49.738;9.004;2024-01-16T05:33:59;98893.53;;;-1.25;79.96
75996;BME280;64681;49.738;9.004;2024-01-16T05:36:26;98901.13;;;-1.14;80.06
75996;BME280;64681;49.738;9.004;2024-01-16T05:38:52;98906.91;;;-1.48;81.04
75996;BME280;64681;49.738;9.004;2024-01-16T05:41:18;98884.63;;;-1.40;80.48
75996;BME280;64681;49.738;9.004;2024-01-16T05:43:44;98897.75;;;-1.30;80.28
75996;BME280;64681;49.738;9.004;2024-01-16T05:46:11;98881.50;;;-1.42;80.70
75996;BME280;64681;49.738;9.004;2024-01-16T05:48:40;98893.81;;;-1.48;80.75
75996;BME280;64681;49.738;9.004;2024-01-16T05:51:05;98887.50;;;-1.57;81.28
75996;BME280;64681;49.738;9.004;2024-01-16T05:53:31;98891.19;;;-1.48;81.17
75996;BME280;64681;49.738;9.004;2024-01-16T05:55:56;98888.56;;;-1.42;81.11
75996;BME280;64681;49.738;9.004;2024-01-16T05:58:22;98881.75;;;-1.49;80.57
75996;BME280;64681;49.738;9.004;2024-01-16T06:00:48;98888.56;;;-1.42;80.53
75996;BME280;64681;49.738;9.004;2024-01-16T06:03:13;98883.59;;;-1.34;80.31
75996;BME280;64681;49.738;9.004;2024-01-16T06:05:39;98883.34;;;-1.42;80.69
75996;BME280;64681;49.738;9.004;2024-01-16T06:08:04;98889.88;;;-1.55;80.71
75996;BME280;64681;49.738;9.004;2024-01-16T06:10:32;98878.63;;;-1.40;79.41
75996;BME280;64681;49.738;9.004;2024-01-16T06:12:57;98884.13;;;-1.42;79.54
75996;BME280;64681;49.738;9.004;2024-01-16T06:15:23;98876.00;;;-1.56;79.77
75996;BME280;64681;49.738;9.004;2024-01-16T06:17:49;98885.69;;;-1.51;80.25
75996;BME280;64681;49.738;9.004;2024-01-16T06:20:14;98899.03;;;-1.53;80.33
75996;BME280;64681;49.738;9.004;2024-01-16T06:22:40;98892.50;;;-1.66;80.76
75996;BME280;64681;49.738;9.004;2024-01-16T06:25:06;98890.88;;;-1.87;80.86
75996;BME280;64681;49.738;9.004;2024-01-16T06:27:31;98889.34;;;-1.68;80.67
75996;BME280;64681;49.738;9.004;2024-01-16T06:29:58;98888.28;;;-1.82;81.50
75996;BME280;64681;49.738;9.004;2024-01-16T06:32:23;98895.53;;;-2.05;82.31
75996;BME280;64681;49.738;9.004;2024-01-16T06:34:49;98895.63;;;-1.74;81.34
75996;BME280;64681;49.738;9.004;2024-01-16T06:37:15;98872.03;;;-1.84;80.40
75996;BME280;64681;49.738;9.004;2024-01-16T06:39:41;98890.63;;;-1.86;81.30
75996;BME280;64681;49.738;9.004;2024-01-16T06:42:07;98896.63;;;-1.91;81.29
75996;BME280;64681;49.738;9.004;2024-01-16T06:44:32;98881.72;;;-1.85;80.83
75996;BME280;64681;49.738;9.004;2024-01-16T06:46:58;98892.69;;;-1.93;81.49
75996;BME280;64681;49.738;9.004;2024-01-16T06:49:23;98899.75;;;-1.94;81.17
75996;BME280;64681;49.738;9.004;2024-01-16T06:51:49;98887.66;;;-2.10;82.62
75996;BME280;64681;49.738;9.004;2024-01-16T06:54:15;98877.69;;;-2.24;82.67
75996;BME280;64681;49.738;9.004;2024-01-16T06:56:40;98876.09;;;-2.30;83.43
75996;BME280;64681;49.738;9.004;2024-01-16T06:59:06;98872.47;;;-2.24;83.35
75996;BME280;64681;49.738;9.004;2024-01-16T07:01:31;98866.41;;;-2.29;82.95
75996;BME280;64681;49.738;9.004;2024-01-16T07:03:57;98874.03;;;-2.28;83.41
75996;BME280;64681;49.738;9.004;2024-01-16T07:06:23;98867.50;;;-2.30;83.36
75996;BME280;64681;49.738;9.004;2024-01-16T07:08:48;98870.88;;;-2.35;84.06
75996;BME280;64681;49.738;9.004;2024-01-16T07:11:14;98870.84;;;-2.40;83.40
75996;BME280;64681;49.738;9.004;2024-01-16T07:13:40;98868.75;;;-2.38;83.50
75996;BME280;64681;49.738;9.004;2024-01-16T07:16:09;98868.56;;;-2.16;83.17
75996;BME280;64681;49.738;9.004;2024-01-16T07:18:38;98877.00;;;-1.93;81.67
75996;BME280;64681;49.738;9.004;2024-01-16T07:21:03;98878.03;;;-1.89;81.64
75996;BME280;64681;49.738;9.004;2024-01-16T07:23:29;98878.03;;;-1.94;82.01
75996;BME280;64681;49.738;9.004;2024-01-16T07:25:55;98885.38;;;-1.76;81.03
75996;BME280;64681;49.738;9.004;2024-01-16T07:28:21;98879.91;;;-1.74;80.69
75996;BME280;64681;49.738;9.004;2024-01-16T07:30:47;98889.59;;;-1.64;80.50
75996;BME280;64681;49.738;9.004;2024-01-16T07:33:13;98884.13;;;-1.57;80.13
75996;BME280;64681;49.738;9.004;2024-01-16T07:35:39;98894.06;;;-1.44;79.33
75996;BME280;64681;49.738;9.004;2024-01-16T07:38:06;98894.31;;;-1.77;79.56
75996;BME280;64681;49.738;9.004;2024-01-16T07:40:32;98883.53;;;-1.85;80.35
75996;BME280;64681;49.738;9.004;2024-01-16T07:42:58;98866.81;;;-1.89;80.89
75996;BME280;64681;49.738;9.004;2024-01-16T07:45:24;98901.41;;;-1.36;80.15
75996;BME280;64681;49.738;9.004;2024-01-16T07:47:49;98890.66;;;-1.19;79.29
75996;BME280;64681;49.738;9.004;2024-01-16T07:50:15;98898.00;;;-1.21;79.23
75996;BME280;64681;49.738;9.004;2024-01-16T07:52:41;98906.38;;;-1.03;77.66
75996;BME280;64681;49.738;9.004;2024-01-16T07:55:06;98897.47;;;-1.18;76.94
75996;BME280;64681;49.738;9.004;2024-01-16T07:57:32;98899.53;;;-0.89;76.90
75996;BME280;64681;49.738;9.004;2024-01-16T07:59:58;98909.97;;;-0.63;76.57
75996;BME280;64681;49.738;9.004;2024-01-16T08:02:32;98919.22;;;-0.97;76.83
75996;BME280;64681;49.738;9.004;2024-01-16T08:04:57;98909.75;;;-0.87;76.76
75996;BME280;64681;49.738;9.004;2024-01-16T08:07:23;98914.19;;;-0.77;76.48
75996;BME280;64681;49.738;9.004;2024-01-16T08:09:48;98914.94;;;-0.51;75.80
75996;BME280;64681;49.738;9.004;2024-01-16T08:12:14;98910.19;;;-0.49;74.78
75996;BME280;64681;49.738;9.004;2024-01-16T08:14:39;98914.41;;;-0.64;74.85
75996;BME280;64681;49.738;9.004;2024-01-16T08:17:05;98906.28;;;-0.67;75.36
75996;BME280;64681;49.738;9.004;2024-01-16T08:19:32;98918.59;;;-0.57;75.05
75996;BME280;64681;49.738;9.004;2024-01-16T08:21:58;98920.88;;;-0.30;74.45
75996;BME280;64681;49.738;9.004;2024-01-16T08:24:23;98920.81;;;-0.09;73.08
75996;BME280;64681;49.738;9.004;2024-01-16T08:26:49;98912.69;;;-0.18;74.21
75996;BME280;64681;49.738;9.004;2024-01-16T08:29:15;98914.25;;;-0.12;72.41
75996;BME280;64681;49.738;9.004;2024-01-16T08:31:41;98887.69;;;-0.05;72.28
75996;BME280;64681;49.738;9.004;2024-01-16T08:34:09;98917.22;;;0.21;71.98
75996;BME280;64681;49.738;9.004;2024-01-16T08:36:35;98917.97;;;0.67;69.87
75996;BME280;64681;49.738;9.004;2024-01-16T08:39:00;98914.91;;;0.09;71.16
75996;BME280;64681;49.738;9.004;2024-01-16T08:41:26;98927.63;;;0.42;71.40
75996;BME280;64681;49.738;9.004;2024-01-16T08:43:51;98902.91;;;0.43;69.93
75996;BME280;64681;49.738;9.004;2024-01-16T08:46:18;98931.97;;;0.91;68.36
75996;BME280;64681;49.738;9.004;2024-01-16T08:48:46;98917.50;;;0.59;69.44
75996;BME280;64681;49.738;9.004;2024-01-16T08:51:12;98925.97;;;0.51;69.72
75996;BME280;64681;49.738;9.004;2024-01-16T08:53:37;98935.53;;;0.71;69.47
75996;BME280;64681;49.738;9.004;2024-01-16T08:56:03;98931.47;;;0.89;68.67
75996;BME280;64681;49.738;9.004;2024-01-16T08:58:32;98920.75;;;0.46;69.91
75996;BME280;64681;49.738;9.004;2024-01-16T09:01:02;98922.31;;;0.47;69.77
75996;BME280;64681;49.738;9.004;2024-01-16T09:03:28;98938.94;;;0.37;69.38
75996;BME280;64681;49.738;9.004;2024-01-16T09:05:53;98935.13;;;0.59;68.73
75996;BME280;64681;49.738;9.004;2024-01-16T09:08:19;98950.16;;;0.48;69.77
75996;BME280;64681;49.738;9.004;2024-01-16T09:10:44;98946.00;;;0.42;68.64
75996;BME280;64681;49.738;9.004;2024-01-16T09:13:10;98957.13;;;0.63;68.14
75996;BME280;64681;49.738;9.004;2024-01-16T09:15:36;98949.44;;;0.77;68.38
75996;BME280;64681;49.738;9.004;2024-01-16T09:18:02;98947.81;;;0.81;67.75
75996;BME280;64681;49.738;9.004;2024-01-16T09:20:27;98949.84;;;0.94;68.10
75996;BME280;64681;49.738;9.004;2024-01-16T09:22:53;98953.75;;;1.26;66.21
75996;BME280;64681;49.738;9.004;2024-01-16T09:25:19;98953.66;;;1.37;66.83
75996;BME280;64681;49.738;9.004;2024-01-16T09:27:45;98961.47;;;1.42;65.75
75996;BME280;64681;49.738;9.004;2024-01-16T09:30:11;98961.13;;;1.78;65.33
75996;BME280;64681;49.738;9.004;2024-01-16T09:32:37;98957.25;;;1.46;66.55
75996;BME280;64681;49.738;9.004;2024-01-16T09:35:03;98960.00;;;1.60;64.59
75996;BME280;64681;49.738;9.004;2024-01-16T09:37:31;98963.91;;;1.63;64.65
75996;BME280;64681;49.738;9.004;2024-01-16T09:39:57;98949.41;;;1.65;65.10
75996;BME280;64681;49.738;9.004;2024-01-16T09:42:23;98956.13;;;1.77;63.76
75996;BME280;64681;49.738;9.004;2024-01-16T09:44:51;98951.06;;;1.80;64.61
75996;BME280;64681;49.738;9.004;2024-01-16T09:47:18;98949.06;;;1.96;63.28
75996;BME280;64681;49.738;9.004;2024-01-16T09:49:46;98954.78;;;1.55;64.50
75996;BME280;64681;49.738;9.004;2024-01-16T09:52:12;98954.66;;;1.89;63.46
75996;BME280;64681;49.738;9.004;2024-01-16T09:54:38;98950.25;;;2.28;63.76
75996;BME280;64681;49.738;9.004;2024-01-16T09:57:06;98945.09;;;2.56;63.04
75996;BME280;64681;49.738;9.004;2024-01-16T09:59:36;98949.59;;;2.36;62.78
75996;BME280;64681;49.738;9.004;2024-01-16T10:02:04;98952.59;;;2.49;62.81
75996;BME280;64681;49.738;9.004;2024-01-16T10:04:34;98944.88;;;2.52;61.25
75996;BME280;64681;49.738;9.004;2024-01-16T10:07:01;98948.47;;;2.43;61.71
75996;BME280;64681;49.738;9.004;2024-01-16T10:09:27;98940.34;;;2.39;62.23
75996;BME280;64681;49.738;9.004;2024-01-16T10:11:53;98944.81;;;2.19;61.73
75996;BME280;64681;49.738;9.004;2024-01-16T10:14:20;98960.56;;;2.44;62.11
75996;BME280;64681;49.738;9.004;2024-01-16T10:17:02;98954.94;;;2.50;62.57
75996;BME280;64681;49.738;9.004;2024-01-16T10:19:52;98954.94;;;2.50;60.84
75996;BME280;64681;49.738;9.004;2024-01-16T10:22:21;98946.13;;;2.74;61.10
75996;BME280;64681;49.738;9.004;2024-01-16T10:24:48;98948.00;;;3.07;61.21
75996;BME280;64681;49.738;9.004;2024-01-16T10:27:16;98934.06;;;3.20;58.88
75996;BME280;64681;49.738;9.004;2024-01-16T10:29:56;98944.56;;;3.39;57.66
75996;BME280;64681;49.738;9.004;2024-01-16T10:32:43;98941.66;;;3.08;59.33
75996;BME280;64681;49.738;9.004;2024-01-16T10:35:13;98945.72;;;2.67;58.86
75996;BME280;64681;49.738;9.004;2024-01-16T10:37:53;98933.28;;;2.53;59.62
75996;BME280;64681;49.738;9.004;2024-01-16T10:40:23;98919.28;;;2.72;60.06
75996;BME280;64681;49.738;9.004;2024-01-16T10:42:58;98929.38;;;2.84;59.71
75996;BME280;64681;49.738;9.004;2024-01-16T10:45:23;98924.78;;;2.76;59.11
75996;BME280;64681;49.738;9.004;2024-01-16T10:48:06;98918.91;;;2.79;59.65
75996;BME280;64681;49.738;9.004;2024-01-16T10:50:34;98916.28;;;3.12;58.31
75996;BME280;64681;49.738;9.004;2024-01-16T10:53:08;98914.31;;;3.31;58.37
75996;BME280;64681;49.738;9.004;2024-01-16T10:55:52;98919.13;;;3.29;57.77
75996;BME280;64681;49.738;9.004;2024-01-16T10:58:24;98900.66;;;3.15;56.42
75996;BME280;64681;49.738;9.004;2024-01-16T11:00:53;98910.19;;;2.64;57.73
75996;BME280;64681;49.738;9.004;2024-01-16T11:03:25;98895.72;;;2.95;57.48
75996;BME280;64681;49.738;9.004;2024-01-16T11:05:57;98905.50;;;3.22;57.47
75996;BME280;64681;49.738;9.004;2024-01-16T11:08:25;98887.22;;;2.98;57.06
75996;BME280;64681;49.738;9.004;2024-01-16T11:10:58;98878.25;;;2.99;58.07
75996;BME280;64681;49.738;9.004;2024-01-16T11:13:25;98903.13;;;2.93;57.24
75996;BME280;64681;49.738;9.004;2024-01-16T11:15:53;98899.84;;;3.01;57.56
75996;BME280;64681;49.738;9.004;2024-01-16T11:18:20;98894.13;;;2.80;56.69
75996;BME280;64681;49.738;9.004;2024-01-16T11:20:46;98878.63;;;3.06;57.00
75996;BME280;64681;49.738;9.004;2024-01-16T11:23:13;98899.09;;;3.28;55.99
75996;BME280;64681;49.738;9.004;2024-01-16T11:25:39;98894.94;;;2.61;58.50
75996;BME280;64681;49.738;9.004;2024-01-16T11:28:12;98887.22;;;2.98;57.01
75996;BME280;64681;49.738;9.004;2024-01-16T11:30:39;98889.09;;;3.11;57.21
75996;BME280;64681;49.738;9.004;2024-01-16T11:33:06;98862.53;;;3.22;57.01
75996;BME280;64681;49.738;9.004;2024-01-16T11:35:38;98829.59;;;3.47;55.95
75996;BME280;64681;49.738;9.004;2024-01-16T11:38:11;98858.00;;;3.64;55.18
75996;BME280;64681;49.738;9.004;2024-01-16T11:40:39;98842.44;;;3.90;55.67
75996;BME280;64681;49.738;9.004;2024-01-16T11:45:57;98844.63;;;2.91;57.33
75996;BME280;64681;49.738;9.004;2024-01-16T11:48:24;98859.69;;;2.90;56.57
75996;BME280;64681;49.738;9.004;2024-01-16T11:50:50;98855.09;;;3.10;56.45
75996;BME280;64681;49.738;9.004;2024-01-16T11:53:32;98856.25;;;2.90;58.18
75996;BME280;64681;49.738;9.004;2024-01-16T11:56:11;98852.44;;;2.82;58.79
75996;BME280;64681;49.738;9.004;2024-01-16T12:01:19;98840.13;;;2.91;58.05
75996;BME280;64681;49.738;9.004;2024-01-16T12:04:06;98837.88;;;2.84;58.39
75996;BME280;64681;49.738;9.004;2024-01-16T12:06:34;98837.69;;;2.48;59.42
75996;BME280;64681;49.738;9.004;2024-01-16T12:09:13;98844.81;;;2.14;60.83
75996;BME280;64681;49.738;9.004;2024-01-16T12:11:41;98838.78;;;2.28;61.62
75996;BME280;64681;49.738;9.004;2024-01-16T12:14:09;98836.28;;;2.56;60.87
75996;BME280;64681;49.738;9.004;2024-01-16T12:16:35;98833.63;;;2.56;60.53
75996;BME280;64681;49.738;9.004;2024-01-16T12:19:08;98824.41;;;2.86;60.14
75996;BME280;64681;49.738;9.004;2024-01-16T12:21:39;98821.16;;;2.75;60.04
75996;BME280;64681;49.738;9.004;2024-01-16T12:24:06;98802.94;;;2.32;61.00
75996;BME280;64681;49.738;9.004;2024-01-16T12:26:32;98814.81;;;2.76;59.57
75996;BME280;64681;49.738;9.004;2024-01-16T12:28:58;98805.03;;;1.97;62.59
75996;BME280;64681;49.738;9.004;2024-01-16T12:31:25;98819.09;;;2.58;61.07
75996;BME280;64681;49.738;9.004;2024-01-16T12:33:51;98811.25;;;2.53;58.19
75996;BME280;64681;49.738;9.004;2024-01-16T12:36:17;98803.44;;;2.95;58.83
75996;BME280;64681;49.738;9.004;2024-01-16T12:38:43;98804.69;;;2.83;57.51
75996;BME280;64681;49.738;9.004;2024-01-16T12:41:11;98790.72;;;2.83;57.44
75996;BME280;64681;49.738;9.004;2024-01-16T12:43:37;98803.41;;;3.09;57.80
75996;BME280;64681;49.738;9.004;2024-01-16T12:46:03;98791.50;;;2.83;58.03
75996;BME280;64681;49.738;9.004;2024-01-16T12:48:29;98780.94;;;2.56;59.40
75996;BME280;64681;49.738;9.004;2024-01-16T12:51:01;98783.22;;;2.90;58.36
75996;BME280;64681;49.738;9.004;2024-01-16T12:53:28;98783.19;;;2.76;57.71
75996;BME280;64681;49.738;9.004;2024-01-16T12:55:58;98778.41;;;3.06;56.58
75996;BME280;64681;49.738;9.004;2024-01-16T12:58:28;98778.19;;;2.61;57.41
75996;BME280;64681;49.738;9.004;2024-01-16T13:00:57;98774.69;;;2.65;55.95
75996;BME280;64681;49.738;9.004;2024-01-16T13:03:25;98750.16;;;3.21;56.06
75996;BME280;64681;49.738;9.004;2024-01-16T13:05:58;98756.66;;;3.51;56.14
75996;BME280;64681;49.738;9.004;2024-01-16T13:08:24;98740.84;;;3.74;54.38
75996;BME280;64681;49.738;9.004;2024-01-16T13:11:04;98749.03;;;2.71;55.45